All Stations Radar Satellite Rainfall Station Map Enhanced Site
Observations: Wind Gusts Humidity Temperature    
Forecasts: Wind Gusts Humidity Temperature    

Mt. Soledad (578) Station Data (Station Map)

Red Flag Warning: No
Fire Weather Zone: 243
SDGE Region: Beach Cities
Lat/Lon: 32.814/-117.241

Observations

Time (PST)Wind Spd/GustTempRHFuel Moisture
11/27 6:40pmNNE 2 G 366°51%3.696%
11/27 6:30pmNNE 1 G 266°42%3.551%
11/27 6:20pmNNE 0 G 166°44%3.489%
11/27 6:10pmNNE 0 G 167°36%3.375%
11/27 6:00pmSE 0 G 268°27%3.365%
11/27 5:50pmS 0 G 169°21%3.406%
11/27 5:40pmNW 0 G 169°20%3.448%
11/27 5:30pmSSW 1 G 271°21%3.468%
11/27 5:20pmNNW 2 G 471°18%3.458%
11/27 5:10pmNW 2 G 372°20%3.52%
11/27 5:00pmNNW 3 G 473°20%3.479%
11/27 4:50pmWNW 1 G 375°21%3.479%
11/27 4:40pmW 1 G 377°14%3.561%
11/27 4:30pmSW 2 G 378°13%3.593%
11/27 4:20pmW 1 G 379°12%3.644%
11/27 4:10pmNW 2 G 479°11%3.717%
11/27 4:00pmWNW 3 G 580°11%3.934%
11/27 3:50pmWNW 2 G 481°11%3.955%
11/27 3:40pmNW 3 G 582°11%3.996%
11/27 3:30pmNW 3 G 583°10%3.955%
11/27 3:20pmWNW 3 G 583°10%3.986%
11/27 3:10pmWNW 4 G 683°10%4.058%
11/27 3:00pmWNW 4 G 783°10%4.203%
11/27 2:50pmWNW 5 G 784°9%4.006%
11/27 2:40pmWNW 5 G 884°9%4.234%
11/27 2:30pmNW 5 G 885°8%4.307%
11/27 2:20pmWNW 5 G 985°9%4.327%
11/27 2:10pmWNW 4 G 785°9%4.369%
11/27 2:00pmWNW 5 G 985°9%4.348%
11/27 1:50pmWNW 6 G 985°9%4.348%
11/27 1:40pmWNW 4 G 985°9%4.389%
11/27 1:30pmW 5 G 984°9%4.369%
11/27 1:20pmWNW 5 G 1184°9%4.358%
11/27 1:10pmWNW 5 G 1084°9%4.379%
11/27 1:00pmWNW 5 G 984°9%4.41%
11/27 12:50pmNW 5 G 984°9%4.389%
11/27 12:40pmWNW 5 G 984°9%4.41%
11/27 12:30pmWNW 5 G 984°9%4.451%
11/27 12:20pmW 5 G 884°9%4.462%
11/27 12:10pmW 5 G 784°9%4.524%
11/27 12:00pmW 4 G 885°10%4.534%
11/27 11:50amSW 4 G 884°10%4.596%
11/27 11:40amSW 4 G 884°10%4.627%
11/27 11:30amSW 4 G 784°10%4.627%
11/27 11:20amSSW 3 G 683°11%4.689%
11/27 11:10amSSW 3 G 683°12%4.762%
11/27 11:00amS 3 G 583°13%4.793%
11/27 10:50amS 3 G 583°14%4.824%
11/27 10:40amSSE 3 G 584°13%4.865%
11/27 10:30amSSW 3 G 484°13%4.896%
11/27 10:20amSSW 2 G 483°13%5.626%
11/27 10:10amSW 3 G 581°13%4.896%
11/27 10:00amSW 3 G 481°13%4.845%
11/27 9:50amSW 2 G 380°12%4.803%
11/27 9:40amSW 2 G 381°16%4.762%
11/27 9:30amSSE 2 G 381°13%4.772%
11/27 9:20amSE 3 G 481°13%4.783%
11/27 9:10amSSE 2 G 481°12%4.814%
11/27 9:00amS 2 G 381°11%4.834%
11/27 8:50amSE 2 G 481°10%4.855%
11/27 8:40amE 2 G 480°9%4.928%
11/27 8:30amE 2 G 479°10%4.907%
11/27 8:20amENE 3 G 578°10%4.917%
11/27 8:10amNE 3 G 578°11%4.938%
11/27 8:00amNNE 4 G 677°12%4.948%
11/27 7:50amSE 1 G 577°13%4.938%
11/27 7:40amNNE 4 G 676°12%4.886%
11/27 7:30amN 3 G 575°13%4.772%
11/27 7:20amNNW 2 G 473°14%4.689%
11/27 7:10amNNW 4 G 572°15%4.607%
11/27 7:00amNNW 4 G 672°14%4.514%
11/27 6:50amNNW 4 G 671°14%4.41%
11/27 6:40amNNW 4 G 570°14%4.286%
11/27 6:30amN 3 G 569°15%4.213%
11/27 6:20amNNW 3 G 470°15%4.213%
11/27 6:10amN 4 G 671°14%4.213%
11/27 6:00amNNE 5 G 772°13%4.203%
11/27 5:50amNNE 4 G 671°14%4.182%
11/27 5:40amNNE 5 G 671°14%4.182%
11/27 5:30amNNE 6 G 771°14%4.172%
11/27 5:20amNNE 5 G 871°14%4.172%
11/27 5:10amNNE 5 G 871°14%4.193%
11/27 5:00amN 5 G 770°14%4.213%
11/27 4:50amN 7 G 970°15%4.234%
11/27 4:40amN 3 G 670°15%4.255%
11/27 4:30amNNW 4 G 570°15%4.317%
11/27 4:20amNNW 5 G 670°15%4.327%
11/27 4:10amNNW 5 G 671°14%4.307%
11/27 4:00amN 5 G 871°14%4.307%
11/27 3:50amN 6 G 871°14%4.296%
11/27 3:40amN 6 G 970°15%4.307%
11/27 3:30amN 5 G 769°15%4.286%
11/27 3:20amN 7 G 1069°15%4.296%
11/27 3:10amNNW 4 G 672°13%4.317%
11/27 3:00amNNW 5 G 571°14%4.317%
11/27 2:50amNNW 4 G 570°15%4.348%
11/27 2:40amN 4 G 670°14%4.265%
11/27 2:30amN 4 G 570°15%4.276%
11/27 2:20amN 4 G 770°15%4.296%
11/27 2:10amNNW 4 G 570°15%4.307%
11/27 2:00amN 5 G 771°15%4.317%
11/27 1:50amN 5 G 770°15%4.317%
11/27 1:40amNNW 5 G 769°17%4.327%
11/27 1:30amN 5 G 667°20%4.296%
11/27 1:20amNNE 5 G 869°19%4.245%
11/27 1:10amN 2 G 571°15%4.213%
11/27 1:00amNNW 3 G 571°16%4.317%
11/27 12:50amNNW 4 G 570°18%4.307%
11/27 12:40amN 2 G 470°19%4.265%
11/27 12:30amN 2 G 469°19%4.255%
11/27 12:20amNW 3 G 469°21%4.255%
11/27 12:10amN 2 G 570°20%4.265%
11/27 12:00amNNW 3 G 567°24%4.234%
11/26 11:50pmNW 3 G 568°24%4.203%
11/26 11:40pmW 1 G 267°25%4.131%
11/26 11:30pmNNW 2 G 366°27%4.131%
11/26 11:20pmNNE 3 G 466°27%4.12%
11/26 11:10pmNNE 1 G 266°25%4.006%
11/26 11:00pmNE 1 G 368°24%3.955%
11/26 10:50pmNE 2 G 467°24%4.006%
11/26 10:40pmN 1 G 465°24%3.965%
11/26 10:30pmSE 2 G 468°20%3.986%
11/26 10:20pmNNE 2 G 468°20%4.069%
11/26 10:10pmNNW 3 G 569°20%4.017%
11/26 10:00pmNW 2 G 469°20%3.986%
11/26 9:50pmNNW 2 G 471°18%3.996%
11/26 9:40pmNW 2 G 371°17%4.006%
11/26 9:30pmWNW 2 G 370°19%4.027%
11/26 9:20pmNW 2 G 469°21%3.986%
11/26 9:10pmNNW 4 G 569°22%3.975%
11/26 9:00pmNW 2 G 269°22%3.955%
11/26 8:50pmNW 1 G 369°21%3.903%
11/26 8:40pmNW 2 G 369°21%3.903%
11/26 8:30pmWNW 2 G 470°20%3.944%
11/26 8:20pmWSW 3 G 471°18%3.965%
11/26 8:10pmWSW 3 G 675°13%3.996%
11/26 8:00pmN 7 G 977°10%4.027%
11/26 7:50pmN 7 G 974°13%3.965%
11/26 7:40pmN 2 G 568°22%3.841%
11/26 7:30pmESE 0 G 269°20%3.82%
11/26 7:20pmESE 2 G 573°14%3.872%
11/26 7:10pmN 6 G 878°9%3.996%
11/26 7:00pmN 8 G 1176°12%4.048%
11/26 6:50pmN 9 G 1374°13%3.986%
11/26 6:40pmNW 1 G 572°12%3.82%
11/26 6:30pmWNW 1 G 373°11%3.758%
11/26 6:20pmW 2 G 473°11%3.862%
11/26 6:10pmN 5 G 1174°9%3.924%
11/26 6:00pmN 5 G 974°9%3.913%
11/26 5:50pmNW 2 G 474°10%3.893%
11/26 5:40pmNW 2 G 573°11%3.934%
11/26 5:30pmWNW 1 G 373°11%3.851%
11/26 5:20pmN 0 G 274°10%3.851%
11/26 5:10pmS 1 G 274°10%3.851%
11/26 5:00pmWSW 1 G 375°9%3.903%